SALOWG 190750Z 10002KT CAVOK 01/M02 Q1019 NOSIG
FTLOWG 190515Z 1906/2006 VRB02KT CAVOK TX13/1914Z TNM03/1906Z PROB30 TEMPO 1906/1907 0700 FZBCFG NSC TEMPO 2002/2006 0500 FZBCFG NSC